This is the latest recevied weather packets stored in our database for station/object KL1SF-7. If no packets are shown the sender has not sent any weather packets the latest 10 day(s).
| Time | Temp. | Humidity | Pressure | Rain* | Wind** | Luminosity | Snow |
|---|---|---|---|---|---|---|---|
| 1777860819 | 16.11° C | 20% | 1014 hPa | 0 mm | - | - | - |
| 1777860212 | 16.11° C | 21% | 1013.7 hPa | 0 mm | - | - | - |
| 1777859613 | 16.11° C | 22% | 1013.9 hPa | 0 mm | - | - | - |
| 1777859005 | 16.67° C | 21% | 1013.9 hPa | 0 mm | - | - | - |
| 1777858418 | 17.22° C | 20% | 1013.9 hPa | 0 mm | - | - | - |
| 1777857803 | 17.78° C | 20% | 1014.2 hPa | 0 mm | - | - | - |
| 1777857213 | 18.33° C | 19% | 1014.2 hPa | 0 mm | - | - | - |
| 1777856624 | 18.89° C | 19% | 1014.2 hPa | 0 mm | - | - | - |
| 1777856005 | 18.89° C | 19% | 1014.1 hPa | 0 mm | - | - | - |
| 1777855418 | 19.44° C | 18% | 1014.1 hPa | 0 mm | - | - | - |
| 1777854831 | 19.44° C | 17% | 1013.4 hPa | 0 mm | - | - | - |
| 1777854219 | 18.89° C | 17% | 1014.2 hPa | 0 mm | - | - | - |
| 1777853609 | 17.22° C | 24% | 1014.2 hPa | 0 mm | - | - | - |
| 1777853022 | 16.67° C | 32% | 1013.9 hPa | 0 mm | - | - | - |
| 1777852402 | 16.67° C | 32% | 1014.2 hPa | 0 mm | - | - | - |
| 1777851812 | 15.56° C | 36% | 1014.2 hPa | 0 mm | - | - | - |
| 1777851225 | 15° C | 37% | 1013.9 hPa | 0 mm | - | - | - |
| 1777850609 | 15° C | 37% | 1014.2 hPa | 0 mm | - | - | - |
| 1777850002 | 15° C | 38% | 1014.2 hPa | 0 mm | - | - | - |
| 1777849415 | 14.44° C | 38% | 1014.7 hPa | 0 mm | - | - | - |
| 1777848816 | 13.89° C | 40% | 1014.9 hPa | 0 mm | - | - | - |
| 1777848205 | 13.89° C | 41% | 1014.9 hPa | 0 mm | - | - | - |
| 1777847620 | 14.44° C | 38% | 1014.9 hPa | 0 mm | - | - | - |
| 1777847008 | 15° C | 36% | 1015.7 hPa | 0 mm | - | - | - |
| 1777846417 | 15.56° C | 33% | 1015.7 hPa | 0 mm | - | - | - |
* Rain since midnight (hover to see other rain measurements)
** Current wind speed in m/s (hover to see current wind gust speed)